sensor_id;sensor_type;location;lat;lon;timestamp;P1;durP1;ratioP1;P2;durP2;ratioP2
21731;SDS011;11028;51.156;17.130;2024-03-08T00:03:27;60.80;;;26.27;;
21731;SDS011;11028;51.156;17.130;2024-03-08T00:10:46;61.10;;;25.90;;
21731;SDS011;11028;51.156;17.130;2024-03-08T00:18:06;55.83;;;25.63;;
21731;SDS011;11028;51.156;17.130;2024-03-08T00:25:24;59.63;;;26.65;;
21731;SDS011;11028;51.156;17.130;2024-03-08T00:32:42;57.45;;;26.73;;
21731;SDS011;11028;51.156;17.130;2024-03-08T00:40:02;61.22;;;26.63;;
21731;SDS011;11028;51.156;17.130;2024-03-08T00:47:24;62.38;;;25.60;;
21731;SDS011;11028;51.156;17.130;2024-03-08T00:54:42;62.08;;;25.42;;
21731;SDS011;11028;51.156;17.130;2024-03-08T01:02:02;56.45;;;25.60;;
21731;SDS011;11028;51.156;17.130;2024-03-08T01:09:20;63.97;;;27.30;;
21731;SDS011;11028;51.156;17.130;2024-03-08T01:25:47;65.13;;;27.13;;
21731;SDS011;11028;51.156;17.130;2024-03-08T01:33:13;63.22;;;27.13;;
21731;SDS011;11028;51.156;17.130;2024-03-08T01:40:31;62.20;;;25.92;;
21731;SDS011;11028;51.156;17.130;2024-03-08T01:47:51;64.00;;;27.35;;
21731;SDS011;11028;51.156;17.130;2024-03-08T01:55:09;56.38;;;25.35;;
21731;SDS011;11028;51.156;17.130;2024-03-08T02:02:32;66.60;;;25.05;;
21731;SDS011;11028;51.156;17.130;2024-03-08T02:09:52;56.35;;;23.00;;
21731;SDS011;11028;51.156;17.130;2024-03-08T02:17:11;53.45;;;23.65;;
21731;SDS011;11028;51.156;17.130;2024-03-08T02:24:31;61.05;;;24.73;;
21731;SDS011;11028;51.156;17.130;2024-03-08T02:31:50;55.88;;;22.13;;
21731;SDS011;11028;51.156;17.130;2024-03-08T02:39:09;56.17;;;25.50;;
21731;SDS011;11028;51.156;17.130;2024-03-08T02:46:30;61.63;;;25.50;;
21731;SDS011;11028;51.156;17.130;2024-03-08T02:53:48;56.42;;;25.73;;
21731;SDS011;11028;51.156;17.130;2024-03-08T03:01:08;55.08;;;23.05;;
21731;SDS011;11028;51.156;17.130;2024-03-08T03:08:28;48.58;;;21.13;;
21731;SDS011;11028;51.156;17.130;2024-03-08T03:15:47;51.55;;;22.10;;
21731;SDS011;11028;51.156;17.130;2024-03-08T03:23:05;55.60;;;23.60;;
21731;SDS011;11028;51.156;17.130;2024-03-08T03:30:27;55.13;;;23.42;;
21731;SDS011;11028;51.156;17.130;2024-03-08T03:37:50;56.63;;;24.25;;
21731;SDS011;11028;51.156;17.130;2024-03-08T03:45:18;54.67;;;23.65;;
21731;SDS011;11028;51.156;17.130;2024-03-08T03:52:38;60.92;;;24.83;;
21731;SDS011;11028;51.156;17.130;2024-03-08T03:59:56;60.25;;;24.85;;
21731;SDS011;11028;51.156;17.130;2024-03-08T04:07:15;57.17;;;24.35;;
21731;SDS011;11028;51.156;17.130;2024-03-08T04:14:35;58.78;;;26.17;;
21731;SDS011;11028;51.156;17.130;2024-03-08T04:21:54;54.50;;;24.90;;
21731;SDS011;11028;51.156;17.130;2024-03-08T04:29:12;62.58;;;26.70;;
21731;SDS011;11028;51.156;17.130;2024-03-08T04:36:32;56.25;;;23.30;;
21731;SDS011;11028;51.156;17.130;2024-03-08T04:43:50;63.90;;;26.08;;
21731;SDS011;11028;51.156;17.130;2024-03-08T04:51:09;64.90;;;26.20;;
21731;SDS011;11028;51.156;17.130;2024-03-08T04:58:29;67.47;;;26.85;;
21731;SDS011;11028;51.156;17.130;2024-03-08T05:05:47;69.15;;;27.08;;
21731;SDS011;11028;51.156;17.130;2024-03-08T05:13:05;70.55;;;29.92;;
21731;SDS011;11028;51.156;17.130;2024-03-08T05:20:25;62.65;;;27.75;;
21731;SDS011;11028;51.156;17.130;2024-03-08T05:27:43;65.75;;;24.65;;
21731;SDS011;11028;51.156;17.130;2024-03-08T05:35:02;53.75;;;25.55;;
21731;SDS011;11028;51.156;17.130;2024-03-08T05:42:25;59.63;;;24.87;;
21731;SDS011;11028;51.156;17.130;2024-03-08T05:49:45;58.10;;;23.58;;
21731;SDS011;11028;51.156;17.130;2024-03-08T05:57:03;57.00;;;26.38;;
21731;SDS011;11028;51.156;17.130;2024-03-08T06:04:24;60.72;;;25.38;;
21731;SDS011;11028;51.156;17.130;2024-03-08T06:11:44;62.95;;;26.98;;
21731;SDS011;11028;51.156;17.130;2024-03-08T06:19:03;60.35;;;27.10;;
21731;SDS011;11028;51.156;17.130;2024-03-08T06:26:23;61.42;;;26.45;;
21731;SDS011;11028;51.156;17.130;2024-03-08T06:33:46;58.53;;;24.98;;
21731;SDS011;11028;51.156;17.130;2024-03-08T06:41:40;58.97;;;25.30;;
21731;SDS011;11028;51.156;17.130;2024-03-08T06:58:21;54.70;;;25.35;;
21731;SDS011;11028;51.156;17.130;2024-03-08T07:05:39;47.67;;;20.85;;
21731;SDS011;11028;51.156;17.130;2024-03-08T07:12:58;53.65;;;23.45;;
21731;SDS011;11028;51.156;17.130;2024-03-08T07:20:20;49.38;;;24.00;;
21731;SDS011;11028;51.156;17.130;2024-03-08T07:27:39;53.45;;;21.80;;
21731;SDS011;11028;51.156;17.130;2024-03-08T07:34:57;45.60;;;21.48;;
21731;SDS011;11028;51.156;17.130;2024-03-08T07:42:17;50.30;;;23.60;;
21731;SDS011;11028;51.156;17.130;2024-03-08T07:59:09;48.63;;;21.77;;
21731;SDS011;11028;51.156;17.130;2024-03-08T08:06:29;45.90;;;21.92;;
21731;SDS011;11028;51.156;17.130;2024-03-08T08:13:49;40.92;;;19.52;;
21731;SDS011;11028;51.156;17.130;2024-03-08T08:21:09;44.78;;;21.00;;
21731;SDS011;11028;51.156;17.130;2024-03-08T08:28:28;46.92;;;19.65;;
21731;SDS011;11028;51.156;17.130;2024-03-08T08:35:47;40.95;;;20.83;;
21731;SDS011;11028;51.156;17.130;2024-03-08T08:43:11;41.03;;;21.00;;
21731;SDS011;11028;51.156;17.130;2024-03-08T08:59:54;41.42;;;18.63;;
21731;SDS011;11028;51.156;17.130;2024-03-08T09:07:14;37.95;;;19.23;;
21731;SDS011;11028;51.156;17.130;2024-03-08T09:14:32;38.25;;;19.52;;
21731;SDS011;11028;51.156;17.130;2024-03-08T09:21:52;33.05;;;17.23;;
21731;SDS011;11028;51.156;17.130;2024-03-08T09:29:10;35.58;;;18.05;;
21731;SDS011;11028;51.156;17.130;2024-03-08T09:36:28;31.25;;;16.42;;
21731;SDS011;11028;51.156;17.130;2024-03-08T09:43:51;29.17;;;16.00;;
21731;SDS011;11028;51.156;17.130;2024-03-08T10:00:43;36.53;;;16.75;;
21731;SDS011;11028;51.156;17.130;2024-03-08T10:08:02;30.58;;;14.10;;
21731;SDS011;11028;51.156;17.130;2024-03-08T10:15:21;30.45;;;16.25;;
21731;SDS011;11028;51.156;17.130;2024-03-08T10:22:42;31.42;;;16.17;;
21731;SDS011;11028;51.156;17.130;2024-03-08T10:30:18;31.35;;;16.27;;
21731;SDS011;11028;51.156;17.130;2024-03-08T10:37:42;28.33;;;14.55;;
21731;SDS011;11028;51.156;17.130;2024-03-08T10:45:05;24.95;;;14.18;;
21731;SDS011;11028;51.156;17.130;2024-03-08T11:00:49;22.70;;;13.00;;
21731;SDS011;11028;51.156;17.130;2024-03-08T11:08:16;24.98;;;13.20;;
21731;SDS011;11028;51.156;17.130;2024-03-08T11:15:38;21.15;;;12.27;;
21731;SDS011;11028;51.156;17.130;2024-03-08T11:23:03;23.92;;;13.75;;
21731;SDS011;11028;51.156;17.130;2024-03-08T11:30:26;27.73;;;13.57;;
21731;SDS011;11028;51.156;17.130;2024-03-08T11:37:45;28.83;;;14.60;;
21731;SDS011;11028;51.156;17.130;2024-03-08T11:45:09;27.67;;;13.45;;
21731;SDS011;11028;51.156;17.130;2024-03-08T12:00:37;24.90;;;14.02;;
21731;SDS011;11028;51.156;17.130;2024-03-08T12:07:58;25.70;;;13.95;;
21731;SDS011;11028;51.156;17.130;2024-03-08T12:15:17;25.45;;;14.50;;
21731;SDS011;11028;51.156;17.130;2024-03-08T12:22:37;26.70;;;14.63;;
21731;SDS011;11028;51.156;17.130;2024-03-08T12:29:59;28.50;;;15.10;;
21731;SDS011;11028;51.156;17.130;2024-03-08T12:37:17;26.52;;;13.70;;
21731;SDS011;11028;51.156;17.130;2024-03-08T12:44:37;28.20;;;15.18;;
21731;SDS011;11028;51.156;17.130;2024-03-08T12:51:59;33.40;;;15.07;;
21731;SDS011;11028;51.156;17.130;2024-03-08T12:59:18;23.90;;;13.13;;
21731;SDS011;11028;51.156;17.130;2024-03-08T13:06:40;27.95;;;14.48;;
21731;SDS011;11028;51.156;17.130;2024-03-08T13:13:58;24.08;;;14.15;;
21731;SDS011;11028;51.156;17.130;2024-03-08T13:21:17;27.33;;;14.32;;
21731;SDS011;11028;51.156;17.130;2024-03-08T13:28:42;31.63;;;14.50;;
21731;SDS011;11028;51.156;17.130;2024-03-08T13:36:01;28.80;;;13.95;;
21731;SDS011;11028;51.156;17.130;2024-03-08T13:43:22;30.20;;;14.70;;
21731;SDS011;11028;51.156;17.130;2024-03-08T13:50:42;30.45;;;15.70;;
21731;SDS011;11028;51.156;17.130;2024-03-08T13:58:00;35.30;;;15.75;;
21731;SDS011;11028;51.156;17.130;2024-03-08T14:05:19;30.00;;;14.90;;
21731;SDS011;11028;51.156;17.130;2024-03-08T14:12:39;35.80;;;17.13;;
21731;SDS011;11028;51.156;17.130;2024-03-08T14:19:59;28.17;;;15.13;;
21731;SDS011;11028;51.156;17.130;2024-03-08T14:27:17;27.88;;;14.50;;
21731;SDS011;11028;51.156;17.130;2024-03-08T14:34:41;33.35;;;16.13;;
21731;SDS011;11028;51.156;17.130;2024-03-08T14:42:00;31.30;;;16.30;;
21731;SDS011;11028;51.156;17.130;2024-03-08T14:49:20;30.45;;;15.32;;
21731;SDS011;11028;51.156;17.130;2024-03-08T14:56:40;33.22;;;16.42;;
21731;SDS011;11028;51.156;17.130;2024-03-08T15:03:59;34.40;;;16.38;;
21731;SDS011;11028;51.156;17.130;2024-03-08T15:11:25;33.17;;;16.67;;
21731;SDS011;11028;51.156;17.130;2024-03-08T15:18:45;31.33;;;17.15;;
21731;SDS011;11028;51.156;17.130;2024-03-08T15:26:08;31.35;;;16.45;;
21731;SDS011;11028;51.156;17.130;2024-03-08T15:33:26;37.38;;;16.85;;
21731;SDS011;11028;51.156;17.130;2024-03-08T15:40:47;32.72;;;16.05;;
21731;SDS011;11028;51.156;17.130;2024-03-08T15:48:08;32.08;;;16.67;;
21731;SDS011;11028;51.156;17.130;2024-03-08T15:55:27;33.85;;;16.98;;
21731;SDS011;11028;51.156;17.130;2024-03-08T16:02:47;34.17;;;16.80;;
21731;SDS011;11028;51.156;17.130;2024-03-08T16:10:07;36.35;;;16.40;;
21731;SDS011;11028;51.156;17.130;2024-03-08T16:17:28;36.63;;;17.38;;
21731;SDS011;11028;51.156;17.130;2024-03-08T16:24:48;35.55;;;17.27;;
21731;SDS011;11028;51.156;17.130;2024-03-08T16:32:07;35.53;;;16.77;;
21731;SDS011;11028;51.156;17.130;2024-03-08T16:39:27;34.63;;;16.05;;
21731;SDS011;11028;51.156;17.130;2024-03-08T16:46:47;30.83;;;16.20;;
21731;SDS011;11028;51.156;17.130;2024-03-08T16:54:06;36.95;;;16.85;;
21731;SDS011;11028;51.156;17.130;2024-03-08T17:01:25;40.60;;;18.05;;
21731;SDS011;11028;51.156;17.130;2024-03-08T17:08:46;35.28;;;16.77;;
21731;SDS011;11028;51.156;17.130;2024-03-08T17:16:05;39.05;;;17.83;;
21731;SDS011;11028;51.156;17.130;2024-03-08T17:23:24;45.70;;;21.70;;
21731;SDS011;11028;51.156;17.130;2024-03-08T17:30:45;61.88;;;25.92;;
21731;SDS011;11028;51.156;17.130;2024-03-08T17:38:03;41.40;;;19.23;;
21731;SDS011;11028;51.156;17.130;2024-03-08T17:45:27;43.70;;;19.67;;
21731;SDS011;11028;51.156;17.130;2024-03-08T17:52:47;47.45;;;21.08;;
21731;SDS011;11028;51.156;17.130;2024-03-08T18:00:08;57.75;;;24.27;;
21731;SDS011;11028;51.156;17.130;2024-03-08T18:07:34;54.22;;;24.38;;
21731;SDS011;11028;51.156;17.130;2024-03-08T18:14:54;58.25;;;24.65;;
21731;SDS011;11028;51.156;17.130;2024-03-08T18:22:12;56.17;;;24.92;;
21731;SDS011;11028;51.156;17.130;2024-03-08T18:29:30;59.30;;;27.67;;
21731;SDS011;11028;51.156;17.130;2024-03-08T18:36:50;63.22;;;26.20;;
21731;SDS011;11028;51.156;17.130;2024-03-08T18:44:08;58.63;;;24.65;;
21731;SDS011;11028;51.156;17.130;2024-03-08T18:51:30;52.40;;;24.88;;
21731;SDS011;11028;51.156;17.130;2024-03-08T18:58:50;55.17;;;24.70;;
21731;SDS011;11028;51.156;17.130;2024-03-08T19:06:08;56.05;;;23.40;;
21731;SDS011;11028;51.156;17.130;2024-03-08T19:13:27;48.97;;;22.98;;
21731;SDS011;11028;51.156;17.130;2024-03-08T19:20:47;56.15;;;24.25;;
21731;SDS011;11028;51.156;17.130;2024-03-08T19:28:06;59.90;;;26.70;;
21731;SDS011;11028;51.156;17.130;2024-03-08T19:35:26;79.45;;;31.75;;
21731;SDS011;11028;51.156;17.130;2024-03-08T19:42:48;59.47;;;26.17;;
21731;SDS011;11028;51.156;17.130;2024-03-08T19:50:08;53.88;;;24.50;;
21731;SDS011;11028;51.156;17.130;2024-03-08T19:57:27;58.72;;;23.40;;
21731;SDS011;11028;51.156;17.130;2024-03-08T20:04:47;45.92;;;21.30;;
21731;SDS011;11028;51.156;17.130;2024-03-08T20:12:07;46.67;;;21.00;;
21731;SDS011;11028;51.156;17.130;2024-03-08T20:19:26;46.33;;;21.98;;
21731;SDS011;11028;51.156;17.130;2024-03-08T20:26:46;45.40;;;21.17;;
21731;SDS011;11028;51.156;17.130;2024-03-08T20:34:05;54.65;;;22.98;;
21731;SDS011;11028;51.156;17.130;2024-03-08T20:41:23;50.15;;;23.65;;
21731;SDS011;11028;51.156;17.130;2024-03-08T20:48:45;56.60;;;23.95;;
21731;SDS011;11028;51.156;17.130;2024-03-08T20:56:06;47.35;;;23.85;;
21731;SDS011;11028;51.156;17.130;2024-03-08T21:03:25;52.70;;;22.63;;
21731;SDS011;11028;51.156;17.130;2024-03-08T21:10:46;46.15;;;20.90;;
21731;SDS011;11028;51.156;17.130;2024-03-08T21:18:05;44.20;;;19.85;;
21731;SDS011;11028;51.156;17.130;2024-03-08T21:25:24;47.72;;;21.10;;
21731;SDS011;11028;51.156;17.130;2024-03-08T21:32:46;47.35;;;19.77;;
21731;SDS011;11028;51.156;17.130;2024-03-08T21:40:05;41.72;;;19.25;;
21731;SDS011;11028;51.156;17.130;2024-03-08T21:47:27;36.03;;;18.13;;
21731;SDS011;11028;51.156;17.130;2024-03-08T21:54:46;44.17;;;19.83;;
21731;SDS011;11028;51.156;17.130;2024-03-08T22:02:07;52.35;;;20.15;;
21731;SDS011;11028;51.156;17.130;2024-03-08T22:09:25;46.25;;;20.00;;
21731;SDS011;11028;51.156;17.130;2024-03-08T22:16:46;50.00;;;20.17;;
21731;SDS011;11028;51.156;17.130;2024-03-08T22:24:05;56.97;;;23.15;;
21731;SDS011;11028;51.156;17.130;2024-03-08T22:31:24;59.35;;;23.52;;
21731;SDS011;11028;51.156;17.130;2024-03-08T22:38:45;57.10;;;24.98;;
21731;SDS011;11028;51.156;17.130;2024-03-08T22:46:03;69.20;;;28.40;;
21731;SDS011;11028;51.156;17.130;2024-03-08T22:53:22;61.38;;;26.63;;
21731;SDS011;11028;51.156;17.130;2024-03-08T23:00:42;68.40;;;28.50;;
21731;SDS011;11028;51.156;17.130;2024-03-08T23:08:13;55.43;;;20.83;;
21731;SDS011;11028;51.156;17.130;2024-03-08T23:15:34;59.80;;;25.80;;
21731;SDS011;11028;51.156;17.130;2024-03-08T23:22:57;58.05;;;26.88;;
21731;SDS011;11028;51.156;17.130;2024-03-08T23:30:21;64.93;;;27.58;;
21731;SDS011;11028;51.156;17.130;2024-03-08T23:37:40;71.47;;;27.80;;
21731;SDS011;11028;51.156;17.130;2024-03-08T23:45:06;68.70;;;28.67;;
21731;SDS011;11028;51.156;17.130;2024-03-08T23:52:27;74.75;;;27.80;;
21731;SDS011;11028;51.156;17.130;2024-03-08T23:59:51;76.70;;;30.05;;
